Time;durP1;ratioP1;P1;durP2;ratioP2;P2;SDS_P1;SDS_P2;PMS_P1;PMS_P2;Temp;Humidity;BMP_temperature;BMP_pressure;BME280_temperature;BME280_humidity;BME280_pressure;Samples;Min_cycle;Max_cycle;Signal;HPM_P1;HPM_P2
2023/09/13 00:00:54;;;;;;;;;;;18.80;99.90;;;;;;4992877;28;19922;-60
2023/09/13 00:03:20;;;;;;;;;;;18.70;99.90;;;;;;4993057;28;19932;-60
2023/09/13 00:05:46;;;;;;;;;;;18.60;99.90;;;;;;4992922;28;19972;-60
2023/09/13 00:08:11;;;;;;;;;;;18.70;99.90;;;;;;4992747;28;19918;-60
2023/09/13 00:10:37;;;;;;;;;;;18.70;99.90;;;;;;4992867;28;20380;-59
2023/09/13 00:13:02;;;;;;;;;;;18.70;99.90;;;;;;4993129;28;20265;-58
2023/09/13 00:15:28;;;;;;;;;;;18.60;99.90;;;;;;4987606;28;19918;-59
2023/09/13 00:17:53;;;;;;;;;;;18.60;99.90;;;;;;4988603;28;19988;-59
2023/09/13 00:20:19;;;;;;;;;;;18.60;99.90;;;;;;4985368;28;19918;-65
2023/09/13 00:22:45;;;;;;;;;;;18.60;99.90;;;;;;4992445;28;19925;-64
2023/09/13 00:25:11;;;;;;;;;;;18.50;99.90;;;;;;4974666;28;19972;-64
2023/09/13 00:27:36;;;;;;;;;;;18.50;99.90;;;;;;5005456;28;19964;-63
2023/09/13 00:30:02;;;;;;;;;;;18.50;99.90;;;;;;4999801;28;20013;-63
2023/09/13 00:32:28;;;;;;;;;;;18.50;99.90;;;;;;5010794;28;20008;-62
2023/09/13 00:34:53;;;;;;;;;;;18.50;99.90;;;;;;5011860;28;20400;-64
2023/09/13 00:37:19;;;;;;;;;;;18.40;99.90;;;;;;4993349;28;19941;-63
2023/09/13 00:39:44;;;;;;;;;;;18.40;99.90;;;;;;5000516;28;20288;-63
2023/09/13 00:42:10;;;;;;;;;;;18.40;99.90;;;;;;5011954;28;19925;-64
2023/09/13 00:44:35;;;;;;;;;;;18.30;99.90;;;;;;5012187;28;19917;-63
2023/09/13 00:47:01;;;;;;;;;;;18.20;99.90;;;;;;5012107;28;20381;-59
2023/09/13 00:49:27;;;;;;;;;;;18.20;99.90;;;;;;5011968;28;20451;-59
2023/09/13 00:51:53;;;;;;;;;;;18.10;99.90;;;;;;5011944;28;19925;-59
2023/09/13 00:54:19;;;;;;;;;;;18.10;99.90;;;;;;5010231;28;19917;-59
2023/09/13 00:56:45;;;;;;;;;;;18.10;99.90;;;;;;4978076;28;19924;-59
2023/09/13 00:59:10;;;;;;;;;;;18.20;99.90;;;;;;5012320;28;19965;-59
2023/09/13 01:01:36;;;;;;;;;;;18.20;99.90;;;;;;5011823;28;20370;-60
2023/09/13 01:04:02;;;;;;;;;;;18.20;99.90;;;;;;5012074;28;20371;-60
2023/09/13 01:06:28;;;;;;;;;;;18.10;99.90;;;;;;5011780;28;19925;-59
2023/09/13 01:08:54;;;;;;;;;;;18.10;99.90;;;;;;5011831;28;19924;-58
2023/09/13 01:11:19;;;;;;;;;;;18.10;99.90;;;;;;5011746;28;19980;-60
2023/09/13 01:13:45;;;;;;;;;;;18.00;99.90;;;;;;5011902;28;20332;-60
2023/09/13 01:16:19;;;;;;;;;;;18.00;99.90;;;;;;4994135;28;19921;-61
2023/09/13 01:18:55;;;;;;;;;;;18.00;99.90;;;;;;4986326;28;19917;-60
2023/09/13 01:21:40;;;;;;;;;;;17.90;99.90;;;;;;5011588;28;19965;-60
2023/09/13 01:24:11;;;;;;;;;;;17.90;99.90;;;;;;5013396;28;19924;-59
2023/09/13 01:26:46;;;;;;;;;;;17.90;99.90;;;;;;5015131;28;19968;-60
2023/09/13 01:29:15;;;;;;;;;;;17.80;99.90;;;;;;5007365;28;19925;-59
2023/09/13 01:31:41;;;;;;;;;;;17.80;99.90;;;;;;4980985;28;20387;-60
2023/09/13 01:34:07;;;;;;;;;;;17.90;99.90;;;;;;5015022;28;19956;-59
2023/09/13 01:36:32;;;;;;;;;;;17.90;99.90;;;;;;4997561;28;19925;-60
2023/09/13 01:38:58;;;;;;;;;;;17.90;99.90;;;;;;5014816;28;19917;-60
2023/09/13 01:41:37;;;;;;;;;;;17.80;99.90;;;;;;5014891;28;19921;-60
2023/09/13 01:44:03;;;;;;;;;;;17.90;99.90;;;;;;5014907;28;19972;-60
2023/09/13 01:46:33;;;;;;;;;;;17.90;99.90;;;;;;5015076;28;19917;-60
2023/09/13 01:48:59;;;;;;;;;;;17.80;99.90;;;;;;5013592;28;19926;-60
2023/09/13 01:51:25;;;;;;;;;;;17.80;99.90;;;;;;5014860;28;19925;-60
2023/09/13 01:53:51;;;;;;;;;;;17.90;99.90;;;;;;5013421;28;20012;-59
2023/09/13 01:56:21;;;;;;;;;;;17.90;99.90;;;;;;5014689;28;19917;-59
2023/09/13 01:58:47;;;;;;;;;;;17.90;99.90;;;;;;5014560;28;19960;-59
2023/09/13 02:01:13;;;;;;;;;;;17.90;99.90;;;;;;5014418;28;19928;-60
2023/09/13 02:03:38;;;;;;;;;;;17.80;99.90;;;;;;5014479;28;19917;-60
2023/09/13 02:06:04;;;;;;;;;;;17.80;99.90;;;;;;5014650;28;19925;-61
2023/09/13 02:08:29;;;;;;;;;;;17.80;99.90;;;;;;5014347;28;19924;-60
2023/09/13 02:10:55;;;;;;;;;;;17.80;99.90;;;;;;5014336;28;20003;-59
2023/09/13 02:13:21;;;;;;;;;;;17.80;99.90;;;;;;5014432;28;19993;-61
2023/09/13 02:15:46;;;;;;;;;;;17.70;99.90;;;;;;5014345;28;19960;-61
2023/09/13 02:18:12;;;;;;;;;;;17.70;99.90;;;;;;5014288;28;20374;-61
2023/09/13 02:20:37;;;;;;;;;;;17.70;99.90;;;;;;5014737;28;20299;-61
2023/09/13 02:23:03;;;;;;;;;;;17.70;99.90;;;;;;5010896;28;19922;-61
2023/09/13 02:25:29;;;;;;;;;;;17.60;99.90;;;;;;4994310;28;19928;-60
2023/09/13 02:27:54;;;;;;;;;;;17.60;99.90;;;;;;4976913;28;19917;-61
2023/09/13 02:30:20;;;;;;;;;;;17.60;99.90;;;;;;4997062;28;20752;-60
2023/09/13 02:32:45;;;;;;;;;;;17.60;99.90;;;;;;5013958;28;20419;-60
2023/09/13 02:35:11;;;;;;;;;;;17.60;99.90;;;;;;4995844;28;19924;-60
2023/09/13 02:37:37;;;;;;;;;;;17.60;99.90;;;;;;4994234;28;19971;-60
2023/09/13 02:40:05;;;;;;;;;;;17.60;99.90;;;;;;4993577;28;19922;-60
2023/09/13 02:42:31;;;;;;;;;;;17.60;99.90;;;;;;4994108;28;19925;-61
2023/09/13 02:44:56;;;;;;;;;;;17.60;99.90;;;;;;4994267;28;20366;-61
2023/09/13 02:47:22;;;;;;;;;;;17.60;99.90;;;;;;4992575;28;19921;-61
2023/09/13 02:49:48;;;;;;;;;;;17.60;99.90;;;;;;4992777;28;19918;-61
2023/09/13 02:52:13;;;;;;;;;;;17.60;99.90;;;;;;4976692;28;19918;-61
2023/09/13 02:54:39;;;;;;;;;;;17.60;99.90;;;;;;4994178;28;20371;-61
2023/09/13 02:57:05;;;;;;;;;;;17.60;99.90;;;;;;4994008;28;19925;-61
2023/09/13 02:59:31;;;;;;;;;;;17.60;99.90;;;;;;4993936;28;19925;-61
2023/09/13 03:01:56;;;;;;;;;;;17.60;99.90;;;;;;4993946;28;19968;-62
2023/09/13 03:04:22;;;;;;;;;;;17.60;99.90;;;;;;4993963;28;19922;-60
2023/09/13 03:06:47;;;;;;;;;;;17.60;99.90;;;;;;4993881;28;19921;-62
2023/09/13 03:09:13;;;;;;;;;;;17.60;99.90;;;;;;4993686;28;19917;-62
2023/09/13 03:11:38;;;;;;;;;;;17.60;99.90;;;;;;4993806;28;19921;-61
2023/09/13 03:14:04;;;;;;;;;;;17.60;99.90;;;;;;4993890;28;19922;-61
2023/09/13 03:16:30;;;;;;;;;;;17.60;99.90;;;;;;4993851;28;20000;-61
2023/09/13 03:18:57;;;;;;;;;;;17.60;99.90;;;;;;4993732;28;20060;-62
2023/09/13 03:21:22;;;;;;;;;;;17.50;99.90;;;;;;4975725;28;20372;-61
2023/09/13 03:23:48;;;;;;;;;;;17.60;99.90;;;;;;4993700;28;19924;-60
2023/09/13 03:26:21;;;;;;;;;;;17.50;99.90;;;;;;4975867;28;19926;-61
2023/09/13 03:28:47;;;;;;;;;;;17.50;99.90;;;;;;4993523;28;19932;-60
2023/09/13 03:31:14;;;;;;;;;;;17.60;99.90;;;;;;5003922;28;19968;-60
2023/09/13 03:33:40;;;;;;;;;;;17.60;99.90;;;;;;5013075;28;19917;-59
2023/09/13 03:36:09;;;;;;;;;;;17.50;99.90;;;;;;5013044;28;19950;-60
2023/09/13 03:38:37;;;;;;;;;;;17.50;99.90;;;;;;5012987;28;19929;-60
2023/09/13 03:41:03;;;;;;;;;;;17.50;99.90;;;;;;5012790;28;19975;-60
2023/09/13 03:43:29;;;;;;;;;;;17.40;99.90;;;;;;5013253;28;19968;-61
2023/09/13 03:45:55;;;;;;;;;;;17.40;99.90;;;;;;5012693;28;19959;-60
2023/09/13 03:48:21;;;;;;;;;;;17.40;99.90;;;;;;5012765;28;20024;-61
2023/09/13 03:50:46;;;;;;;;;;;17.30;99.90;;;;;;5012596;28;20458;-60
2023/09/13 03:53:12;;;;;;;;;;;17.30;99.90;;;;;;5012476;28;19917;-60
2023/09/13 03:55:38;;;;;;;;;;;17.20;99.90;;;;;;5012646;28;19921;-60
2023/09/13 03:58:03;;;;;;;;;;;17.20;99.90;;;;;;5012844;28;19976;-60
2023/09/13 04:00:29;;;;;;;;;;;17.20;99.90;;;;;;5012697;28;19949;-60
2023/09/13 04:02:54;;;;;;;;;;;17.20;99.90;;;;;;5012604;28;20390;-60
2023/09/13 04:05:20;;;;;;;;;;;17.20;99.90;;;;;;5012531;28;20380;-60
2023/09/13 04:07:46;;;;;;;;;;;17.20;99.90;;;;;;5012410;28;19917;-61
2023/09/13 04:10:11;;;;;;;;;;;17.20;99.90;;;;;;5012323;28;19917;-60
2023/09/13 04:12:37;;;;;;;;;;;17.00;99.90;;;;;;5012257;28;19917;-59
2023/09/13 04:15:03;;;;;;;;;;;17.00;99.90;;;;;;5012443;28;19917;-60
2023/09/13 04:17:29;;;;;;;;;;;17.00;99.90;;;;;;4994960;28;19917;-60
2023/09/13 04:19:54;;;;;;;;;;;16.90;99.90;;;;;;5012284;28;19924;-60
2023/09/13 04:22:20;;;;;;;;;;;16.80;99.90;;;;;;4995173;28;19985;-60
2023/09/13 04:24:46;;;;;;;;;;;16.80;99.90;;;;;;4992529;28;19917;-60
2023/09/13 04:27:11;;;;;;;;;;;16.80;99.90;;;;;;4992580;28;19928;-59
2023/09/13 04:29:40;;;;;;;;;;;16.90;99.90;;;;;;5001154;28;19924;-61
2023/09/13 04:32:05;;;;;;;;;;;17.00;99.90;;;;;;5009875;28;19917;-61
2023/09/13 04:34:36;;;;;;;;;;;16.90;99.90;;;;;;5012419;28;19917;-62
2023/09/13 04:37:04;;;;;;;;;;;16.90;99.90;;;;;;5012214;28;20746;-62
2023/09/13 04:39:31;;;;;;;;;;;16.80;99.90;;;;;;5012408;28;19976;-60
2023/09/13 04:41:58;;;;;;;;;;;16.80;99.90;;;;;;5011869;28;19929;-61
2023/09/13 04:44:24;;;;;;;;;;;16.80;99.90;;;;;;5012494;28;19924;-61
2023/09/13 04:46:50;;;;;;;;;;;16.90;99.90;;;;;;5012553;28;19917;-63
2023/09/13 04:49:16;;;;;;;;;;;16.80;99.90;;;;;;5012124;28;19917;-61
2023/09/13 04:51:41;;;;;;;;;;;16.90;99.90;;;;;;5012010;28;20447;-61
2023/09/13 04:54:07;;;;;;;;;;;16.80;99.90;;;;;;5011583;28;20003;-61
2023/09/13 04:56:32;;;;;;;;;;;16.80;99.90;;;;;;5012053;28;19972;-60
2023/09/13 04:58:58;;;;;;;;;;;16.60;99.90;;;;;;5013464;28;19964;-60
2023/09/13 05:01:23;;;;;;;;;;;16.60;99.90;;;;;;4998198;28;19975;-60
2023/09/13 05:03:49;;;;;;;;;;;16.50;99.90;;;;;;5015818;28;19918;-62
2023/09/13 05:06:15;;;;;;;;;;;16.60;99.90;;;;;;4997834;28;19917;-62
2023/09/13 05:08:41;;;;;;;;;;;16.40;99.90;;;;;;5015563;28;19925;-60
2023/09/13 05:11:06;;;;;;;;;;;16.40;99.90;;;;;;5015460;28;19917;-62
2023/09/13 05:13:32;;;;;;;;;;;16.40;99.90;;;;;;5015569;28;19917;-59
2023/09/13 05:15:58;;;;;;;;;;;16.40;99.90;;;;;;5015464;28;19917;-62
2023/09/13 05:18:23;;;;;;;;;;;16.30;99.90;;;;;;5015548;28;20398;-62
2023/09/13 05:20:50;;;;;;;;;;;16.20;99.90;;;;;;5015429;28;20276;-62
2023/09/13 05:23:15;;;;;;;;;;;16.30;99.90;;;;;;4995943;28;19917;-62
2023/09/13 05:25:44;;;;;;;;;;;16.30;99.90;;;;;;5015497;28;19936;-62
2023/09/13 05:28:11;;;;;;;;;;;16.30;99.90;;;;;;5015345;28;19917;-62
2023/09/13 05:30:37;;;;;;;;;;;16.30;99.90;;;;;;5001110;28;20028;-62
2023/09/13 05:33:02;;;;;;;;;;;16.30;99.90;;;;;;5015075;28;20023;-62
2023/09/13 05:35:32;;;;;;;;;;;16.40;99.90;;;;;;4997816;28;19921;-63
2023/09/13 05:37:58;;;;;;;;;;;16.30;99.90;;;;;;5015161;28;19928;-62
2023/09/13 05:40:26;;;;;;;;;;;16.30;99.90;;;;;;5015370;28;20034;-61
2023/09/13 05:42:51;;;;;;;;;;;16.30;99.90;;;;;;5015080;28;19925;-61
2023/09/13 05:45:17;;;;;;;;;;;16.30;99.90;;;;;;5015360;28;19924;-62
2023/09/13 05:47:42;;;;;;;;;;;16.20;99.90;;;;;;5014927;28;19926;-62
2023/09/13 05:50:08;;;;;;;;;;;16.20;99.90;;;;;;5014847;28;20330;-62
2023/09/13 05:52:34;;;;;;;;;;;16.10;99.90;;;;;;5014815;28;19924;-63
2023/09/13 05:55:02;;;;;;;;;;;16.20;99.90;;;;;;5014962;28;19924;-63
2023/09/13 05:57:28;;;;;;;;;;;16.20;99.90;;;;;;5014652;28;19917;-63
2023/09/13 05:59:53;;;;;;;;;;;16.20;99.90;;;;;;5014127;28;19917;-62
2023/09/13 06:02:19;;;;;;;;;;;16.20;99.90;;;;;;4997957;28;19976;-63
2023/09/13 06:04:45;;;;;;;;;;;16.10;99.90;;;;;;4995020;28;19972;-61
2023/09/13 06:07:10;;;;;;;;;;;16.00;99.90;;;;;;4995038;28;19921;-62
2023/09/13 06:09:36;;;;;;;;;;;16.10;99.90;;;;;;4994719;28;19917;-63
2023/09/13 06:12:01;;;;;;;;;;;16.10;99.90;;;;;;4993511;28;19918;-61
2023/09/13 06:14:27;;;;;;;;;;;15.90;99.90;;;;;;4994562;28;19957;-61
2023/09/13 06:16:53;;;;;;;;;;;15.90;99.90;;;;;;4995164;28;19976;-62
2023/09/13 06:19:18;;;;;;;;;;;15.90;99.90;;;;;;4994641;28;20359;-62
2023/09/13 06:21:45;;;;;;;;;;;16.00;99.90;;;;;;4994351;28;19976;-62
2023/09/13 06:24:11;;;;;;;;;;;16.00;99.90;;;;;;4994846;28;19922;-61
2023/09/13 06:26:36;;;;;;;;;;;16.00;99.90;;;;;;4976833;28;19928;-61
2023/09/13 06:29:02;;;;;;;;;;;15.90;99.90;;;;;;4994810;28;19917;-61
2023/09/13 06:31:27;;;;;;;;;;;16.00;99.90;;;;;;4996699;28;20012;-61
2023/09/13 06:33:53;;;;;;;;;;;15.90;99.90;;;;;;4994972;28;19924;-61
2023/09/13 06:36:19;;;;;;;;;;;15.90;99.90;;;;;;4994594;28;20387;-60
2023/09/13 06:38:44;;;;;;;;;;;15.90;99.90;;;;;;5002893;28;20004;-61
2023/09/13 06:41:10;;;;;;;;;;;15.90;99.90;;;;;;5004136;28;20299;-60
2023/09/13 06:43:36;;;;;;;;;;;15.90;99.90;;;;;;4987918;28;20288;-62
2023/09/13 06:46:02;;;;;;;;;;;15.80;99.90;;;;;;4991455;28;19918;-61
2023/09/13 06:48:28;;;;;;;;;;;15.80;99.90;;;;;;5003491;28;19946;-61
2023/09/13 06:50:53;;;;;;;;;;;15.90;99.90;;;;;;5002423;28;19917;-60
2023/09/13 06:53:19;;;;;;;;;;;16.00;99.90;;;;;;5006770;28;19923;-61
2023/09/13 06:55:45;;;;;;;;;;;15.80;99.90;;;;;;4996150;28;19918;-61
2023/09/13 06:58:10;;;;;;;;;;;16.00;99.90;;;;;;4999509;28;20008;-60
2023/09/13 07:00:36;;;;;;;;;;;15.90;99.90;;;;;;4995111;28;19924;-59
2023/09/13 07:03:02;;;;;;;;;;;16.00;99.90;;;;;;4998155;28;19941;-62
2023/09/13 07:05:31;;;;;;;;;;;16.00;99.90;;;;;;5000638;28;19971;-62
2023/09/13 07:07:58;;;;;;;;;;;16.00;99.90;;;;;;5002414;28;19972;-61
2023/09/13 07:10:23;;;;;;;;;;;16.00;99.90;;;;;;5002433;28;19925;-61
2023/09/13 07:12:49;;;;;;;;;;;16.10;99.90;;;;;;4985554;28;19918;-62
2023/09/13 07:15:15;;;;;;;;;;;16.10;99.90;;;;;;4974512;28;19929;-63
2023/09/13 07:17:41;;;;;;;;;;;16.10;99.90;;;;;;4992291;28;20013;-62
2023/09/13 07:20:06;;;;;;;;;;;16.20;99.90;;;;;;4984364;28;19933;-62
2023/09/13 07:22:32;;;;;;;;;;;16.20;99.90;;;;;;4990223;28;19921;-62
2023/09/13 07:24:57;;;;;;;;;;;16.10;99.90;;;;;;5002885;28;19921;-62
2023/09/13 07:27:23;;;;;;;;;;;16.20;99.90;;;;;;4993128;28;19922;-62
2023/09/13 07:29:49;;;;;;;;;;;16.10;99.90;;;;;;4993116;28;20012;-62
2023/09/13 07:32:16;;;;;;;;;;;16.10;99.90;;;;;;5010582;28;19972;-63
2023/09/13 07:34:42;;;;;;;;;;;16.10;99.90;;;;;;5012733;28;20359;-63
2023/09/13 07:37:07;;;;;;;;;;;16.10;99.90;;;;;;5012554;28;19925;-62
2023/09/13 07:39:33;;;;;;;;;;;16.20;99.90;;;;;;5012721;28;19979;-62
2023/09/13 07:41:59;;;;;;;;;;;16.10;99.90;;;;;;5012248;28;19921;-64
2023/09/13 07:44:24;;;;;;;;;;;16.20;99.90;;;;;;5012124;28;19917;-62
2023/09/13 07:46:50;;;;;;;;;;;16.20;99.90;;;;;;5012468;28;19921;-62
2023/09/13 07:49:16;;;;;;;;;;;16.20;99.90;;;;;;5012622;28;20004;-62
2023/09/13 07:51:42;;;;;;;;;;;16.20;99.90;;;;;;5012325;28;19917;-63
2023/09/13 07:54:08;;;;;;;;;;;16.10;99.90;;;;;;5011218;28;19924;-62
2023/09/13 07:56:34;;;;;;;;;;;16.20;99.90;;;;;;5012700;28;19918;-62
2023/09/13 07:58:59;;;;;;;;;;;16.10;99.90;;;;;;5012539;28;20042;-63
2023/09/13 08:01:25;;;;;;;;;;;16.10;99.90;;;;;;5012638;28;20054;-63
2023/09/13 08:03:51;;;;;;;;;;;16.00;99.90;;;;;;5012607;28;19961;-62
2023/09/13 08:06:16;;;;;;;;;;;16.00;99.90;;;;;;5012441;28;19956;-62
2023/09/13 08:08:42;;;;;;;;;;;16.00;99.90;;;;;;5012293;28;20402;-63
2023/09/13 08:11:07;;;;;;;;;;;16.10;99.90;;;;;;5012273;28;19918;-64
2023/09/13 08:13:33;;;;;;;;;;;16.00;99.90;;;;;;4994629;28;19972;-64
2023/09/13 08:16:01;;;;;;;;;;;15.90;99.90;;;;;;5011975;28;19921;-63
2023/09/13 08:18:26;;;;;;;;;;;16.10;99.90;;;;;;5012423;28;19921;-63
2023/09/13 08:20:52;;;;;;;;;;;16.20;99.90;;;;;;5012259;28;20000;-63
2023/09/13 08:23:18;;;;;;;;;;;16.40;99.90;;;;;;5012086;28;20012;-64
2023/09/13 08:25:43;;;;;;;;;;;16.40;99.90;;;;;;5011972;28;20330;-63
2023/09/13 08:28:09;;;;;;;;;;;16.60;99.90;;;;;;5011956;28;20320;-63
2023/09/13 08:30:35;;;;;;;;;;;16.60;99.90;;;;;;4998038;28;19924;-62
2023/09/13 08:33:00;;;;;;;;;;;16.70;99.90;;;;;;5013822;28;19988;-63
2023/09/13 08:35:26;;;;;;;;;;;16.90;99.90;;;;;;5015996;28;20352;-63
2023/09/13 08:37:51;;;;;;;;;;;17.00;99.90;;;;;;5016110;28;20067;-63
2023/09/13 08:40:17;;;;;;;;;;;17.00;99.90;;;;;;5016138;28;20016;-63
2023/09/13 08:42:43;;;;;;;;;;;17.00;99.90;;;;;;5015834;28;19921;-63
2023/09/13 08:45:09;;;;;;;;;;;17.00;99.90;;;;;;5016110;28;19923;-62
2023/09/13 08:47:38;;;;;;;;;;;17.20;99.90;;;;;;5016083;28;20291;-64
2023/09/13 08:50:05;;;;;;;;;;;17.30;99.90;;;;;;5016169;28;19917;-63
2023/09/13 08:52:31;;;;;;;;;;;17.40;99.90;;;;;;5015832;28;19925;-63
2023/09/13 08:54:57;;;;;;;;;;;17.60;99.90;;;;;;4998365;28;20000;-64
2023/09/13 08:57:24;;;;;;;;;;;17.90;99.90;;;;;;5015688;28;20007;-62
2023/09/13 08:59:50;;;;;;;;;;;18.00;99.90;;;;;;5015531;28;19924;-63
2023/09/13 09:02:17;;;;;;;;;;;17.80;99.90;;;;;;5015643;28;19922;-62
2023/09/13 09:04:43;;;;;;;;;;;17.70;99.90;;;;;;5015670;28;20286;-63
2023/09/13 09:07:09;;;;;;;;;;;17.60;99.90;;;;;;5015570;28;19918;-63
2023/09/13 09:09:35;;;;;;;;;;;17.60;99.90;;;;;;5015177;28;19918;-64
2023/09/13 09:12:02;;;;;;;;;;;17.40;99.90;;;;;;5015442;28;19921;-62
2023/09/13 09:14:31;;;;;;;;;;;17.40;99.90;;;;;;5015068;28;19940;-63
2023/09/13 09:16:58;;;;;;;;;;;17.20;99.90;;;;;;5015439;28;20279;-63
2023/09/13 09:19:23;;;;;;;;;;;17.20;99.90;;;;;;5001290;28;20009;-64
2023/09/13 09:21:49;;;;;;;;;;;17.10;99.90;;;;;;4997039;28;20012;-63
2023/09/13 09:24:15;;;;;;;;;;;17.10;99.90;;;;;;4996753;28;19918;-63
2023/09/13 09:26:41;;;;;;;;;;;17.10;99.90;;;;;;4996555;28;19926;-62
2023/09/13 09:29:13;;;;;;;;;;;17.20;99.90;;;;;;4996242;28;20364;-62
2023/09/13 09:31:39;;;;;;;;;;;17.10;99.90;;;;;;5009195;28;19924;-63
2023/09/13 09:34:05;;;;;;;;;;;17.20;99.90;;;;;;4997830;28;20280;-62
2023/09/13 09:36:34;;;;;;;;;;;17.30;99.90;;;;;;5015215;28;19929;-61
2023/09/13 09:39:03;;;;;;;;;;;17.30;99.90;;;;;;5014905;28;19933;-63
2023/09/13 09:41:33;;;;;;;;;;;17.20;99.90;;;;;;5014945;28;20261;-62
2023/09/13 09:43:58;;;;;;;;;;;17.20;99.90;;;;;;5014244;28;19933;-63
2023/09/13 09:46:24;;;;;;;;;;;17.30;99.90;;;;;;5014821;28;19918;-62
2023/09/13 09:48:52;;;;;;;;;;;17.40;99.90;;;;;;5014745;28;20011;-62
2023/09/13 09:51:19;;;;;;;;;;;17.30;99.90;;;;;;5014879;28;19917;-63
2023/09/13 09:53:44;;;;;;;;;;;17.40;99.90;;;;;;5014615;28;19925;-62
2023/09/13 09:56:14;;;;;;;;;;;17.30;99.90;;;;;;5014529;28;19922;-62
2023/09/13 09:58:40;;;;;;;;;;;17.30;99.90;;;;;;5014732;28;19924;-62
2023/09/13 10:01:06;;;;;;;;;;;17.40;99.90;;;;;;5014445;28;20366;-63
2023/09/13 10:03:34;;;;;;;;;;;17.40;99.90;;;;;;5014397;28;19925;-63
2023/09/13 10:06:02;;;;;;;;;;;17.70;99.90;;;;;;5014285;28;19932;-62
2023/09/13 10:08:47;;;;;;;;;;;17.70;99.90;;;;;;5014490;28;19976;-63
2023/09/13 10:11:14;;;;;;;;;;;17.80;99.90;;;;;;5014084;28;19917;-63
2023/09/13 10:13:40;;;;;;;;;;;18.00;99.90;;;;;;5014255;28;19924;-62
2023/09/13 10:16:06;;;;;;;;;;;18.00;99.90;;;;;;5013891;28;20410;-62
2023/09/13 10:18:36;;;;;;;;;;;18.20;99.90;;;;;;5014166;28;19917;-62
2023/09/13 10:21:03;;;;;;;;;;;18.50;99.90;;;;;;5013805;28;19917;-63
2023/09/13 10:23:29;;;;;;;;;;;18.50;99.90;;;;;;5014025;28;20387;-63
2023/09/13 10:25:57;;;;;;;;;;;18.70;99.90;;;;;;5013911;28;19993;-63
2023/09/13 10:28:26;;;;;;;;;;;18.90;99.90;;;;;;5012692;28;19972;-62
2023/09/13 10:30:53;;;;;;;;;;;19.00;99.90;;;;;;5001757;28;20427;-62
2023/09/13 10:33:21;;;;;;;;;;;19.30;99.90;;;;;;5014143;28;19917;-62
2023/09/13 10:35:50;;;;;;;;;;;19.60;99.90;;;;;;5014126;28;19975;-62
2023/09/13 10:38:20;;;;;;;;;;;19.70;99.90;;;;;;5013796;28;19943;-63
2023/09/13 10:40:50;;;;;;;;;;;20.20;99.90;;;;;;5013724;28;20299;-64
2023/09/13 10:43:16;;;;;;;;;;;20.10;99.90;;;;;;5013704;28;19928;-63
2023/09/13 10:45:42;;;;;;;;;;;20.10;99.90;;;;;;5013828;28;19917;-62
2023/09/13 10:48:08;;;;;;;;;;;19.90;99.90;;;;;;4995856;28;19917;-62
2023/09/13 10:50:33;;;;;;;;;;;20.00;99.90;;;;;;4997110;28;20276;-63
2023/09/13 10:53:00;;;;;;;;;;;19.90;99.90;;;;;;4993912;28;19924;-63
2023/09/13 10:55:25;;;;;;;;;;;20.00;99.90;;;;;;4993678;28;20395;-63
2023/09/13 10:57:52;;;;;;;;;;;19.80;99.90;;;;;;4993164;28;20051;-62
2023/09/13 11:00:18;;;;;;;;;;;19.70;99.90;;;;;;4993938;28;19933;-62
2023/09/13 11:02:43;;;;;;;;;;;19.60;99.90;;;;;;4993727;28;19925;-63
2023/09/13 11:05:10;;;;;;;;;;;19.40;99.90;;;;;;4993792;28;19940;-62
2023/09/13 11:07:43;;;;;;;;;;;19.10;99.90;;;;;;4993691;28;20268;-63
2023/09/13 11:10:13;;;;;;;;;;;19.00;99.90;;;;;;4993401;28;19964;-64
2023/09/13 11:12:39;;;;;;;;;;;19.10;99.90;;;;;;4993546;28;19924;-63
2023/09/13 11:15:14;;;;;;;;;;;20.60;99.90;;;;;;4993324;28;19917;-63
2023/09/13 11:17:47;;;;;;;;;;;20.60;99.90;;;;;;5130772;27;20263;-62
2023/09/13 11:20:21;;;;;;;;;;;20.30;99.90;;;;;;5130579;27;19933;-63
2023/09/13 11:22:59;;;;;;;;;;;20.00;99.90;;;;;;5129052;28;19919;-62
2023/09/13 11:25:29;;;;;;;;;;;20.70;99.90;;;;;;5130138;27;19963;-63
2023/09/13 11:27:56;;;;;;;;;;;21.70;99.90;;;;;;5130498;27;19926;-64
2023/09/13 11:30:41;;;;;;;;;;;22.50;99.90;;;;;;5112324;27;19920;-63
2023/09/13 11:33:07;;;;;;;;;;;22.80;99.90;;;;;;5109572;28;20010;-63
2023/09/13 11:35:34;;;;;;;;;;;22.90;99.90;;;;;;5109292;28;20409;-63
2023/09/13 11:37:59;;;;;;;;;;;22.90;99.90;;;;;;5109435;28;19965;-63
2023/09/13 11:40:25;;;;;;;;;;;22.70;99.90;;;;;;5109473;28;19924;-62
2023/09/13 11:42:51;;;;;;;;;;;22.20;99.90;;;;;;5109426;28;20357;-63
2023/09/13 11:45:17;;;;;;;;;;;21.70;99.90;;;;;;5109382;28;20278;-62
2023/09/13 11:47:42;;;;;;;;;;;21.50;99.90;;;;;;5108329;28;19941;-62
2023/09/13 11:50:08;;;;;;;;;;;21.00;99.90;;;;;;5109205;28;20267;-62
2023/09/13 11:53:08;;;;;;;;;;;20.70;99.90;;;;;;5109099;28;19924;-62
2023/09/13 11:55:37;;;;;;;;;;;20.40;99.90;;;;;;5046314;28;20326;-62
2023/09/13 11:58:03;;;;;;;;;;;20.10;99.90;;;;;;5058398;28;19925;-63
2023/09/13 12:00:29;;;;;;;;;;;20.00;99.90;;;;;;5049837;28;19966;-62
2023/09/13 12:02:54;;;;;;;;;;;20.00;99.90;;;;;;5066349;28;19927;-64
2023/09/13 12:05:21;;;;;;;;;;;19.70;99.90;;;;;;5066052;28;19921;-63
2023/09/13 12:07:46;;;;;;;;;;;19.90;99.90;;;;;;5066188;28;20374;-63
2023/09/13 12:10:12;;;;;;;;;;;19.90;99.90;;;;;;5066077;28;19959;-62
2023/09/13 12:12:41;;;;;;;;;;;19.90;99.90;;;;;;5065852;28;20346;-62
2023/09/13 12:15:13;;;;;;;;;;;19.80;99.90;;;;;;5065957;28;19928;-62
2023/09/13 12:17:39;;;;;;;;;;;19.80;99.90;;;;;;5065629;28;19932;-62
2023/09/13 12:20:10;;;;;;;;;;;19.70;99.90;;;;;;5066117;28;20258;-62
2023/09/13 12:22:41;;;;;;;;;;;19.70;99.90;;;;;;5065627;28;20437;-62
2023/09/13 12:25:10;;;;;;;;;;;19.70;99.90;;;;;;5039109;28;20010;-62
2023/09/13 12:27:36;;;;;;;;;;;19.70;99.90;;;;;;5060812;28;19921;-63
2023/09/13 12:30:05;;;;;;;;;;;19.80;99.90;;;;;;5040614;28;19998;-63
2023/09/13 12:32:31;;;;;;;;;;;19.60;99.90;;;;;;5094822;28;19964;-63
2023/09/13 12:34:57;;;;;;;;;;;19.60;99.90;;;;;;5094606;28;19959;-63
2023/09/13 12:37:22;;;;;;;;;;;19.60;99.90;;;;;;5094697;28;19931;-63
2023/09/13 12:39:48;;;;;;;;;;;19.60;99.90;;;;;;5094628;28;20393;-63
2023/09/13 12:42:14;;;;;;;;;;;19.50;99.90;;;;;;5094508;28;19926;-63
2023/09/13 12:44:41;;;;;;;;;;;19.40;99.90;;;;;;5094606;28;19920;-64
2023/09/13 12:47:07;;;;;;;;;;;19.30;99.90;;;;;;5094444;28;19970;-63
2023/09/13 12:49:33;;;;;;;;;;;19.00;99.90;;;;;;5094766;28;20332;-64
2023/09/13 12:51:59;;;;;;;;;;;18.90;99.90;;;;;;5094592;28;19967;-63
2023/09/13 12:54:25;;;;;;;;;;;18.90;99.90;;;;;;5094281;28;19956;-63
2023/09/13 12:56:50;;;;;;;;;;;18.90;99.90;;;;;;5094572;28;19935;-62
2023/09/13 12:59:16;;;;;;;;;;;18.90;99.90;;;;;;5094865;28;19924;-63
2023/09/13 13:01:42;;;;;;;;;;;18.80;99.90;;;;;;5097673;28;19920;-62
2023/09/13 13:04:09;;;;;;;;;;;18.90;99.90;;;;;;5096429;28;19924;-62
2023/09/13 13:06:53;;;;;;;;;;;18.90;99.90;;;;;;5096940;28;19928;-63
2023/09/13 13:09:21;;;;;;;;;;;18.90;99.90;;;;;;5094518;28;19956;-63
2023/09/13 13:11:49;;;;;;;;;;;18.90;99.90;;;;;;5094294;28;19924;-63
2023/09/13 13:14:17;;;;;;;;;;;19.00;99.90;;;;;;5100251;28;20378;-62
2023/09/13 13:16:43;;;;;;;;;;;19.00;99.90;;;;;;5114093;28;20301;-62
2023/09/13 13:19:09;;;;;;;;;;;19.00;99.90;;;;;;5114417;28;19977;-63
2023/09/13 13:21:34;;;;;;;;;;;19.10;99.90;;;;;;5114413;28;19924;-63
2023/09/13 13:24:00;;;;;;;;;;;18.90;99.90;;;;;;5115324;28;19920;-63
2023/09/13 13:26:25;;;;;;;;;;;18.80;99.90;;;;;;5114769;28;20374;-63
2023/09/13 13:28:51;;;;;;;;;;;18.80;99.90;;;;;;5109258;28;20043;-62
2023/09/13 13:31:20;;;;;;;;;;;18.90;99.90;;;;;;5093738;28;19920;-62
2023/09/13 13:33:46;;;;;;;;;;;18.80;99.90;;;;;;5093517;28;19920;-62
2023/09/13 13:36:12;;;;;;;;;;;18.90;99.90;;;;;;5093512;28;19932;-63
2023/09/13 13:38:40;;;;;;;;;;;18.90;99.90;;;;;;5093263;28;19923;-62
2023/09/13 13:41:06;;;;;;;;;;;18.80;99.90;;;;;;5092828;28;19920;-61
2023/09/13 13:43:33;;;;;;;;;;;18.90;99.90;;;;;;5093651;28;19974;-62
2023/09/13 13:46:06;;;;;;;;;;;18.90;99.90;;;;;;5092764;28;19927;-63
2023/09/13 13:48:33;;;;;;;;;;;18.90;99.90;;;;;;5093787;28;19920;-63
2023/09/13 13:50:59;;;;;;;;;;;18.80;99.90;;;;;;5093342;28;19927;-62
2023/09/13 13:53:27;;;;;;;;;;;18.90;99.90;;;;;;5099835;28;19944;-63
2023/09/13 13:55:53;;;;;;;;;;;18.80;99.90;;;;;;5112261;28;20708;-62
2023/09/13 13:58:19;;;;;;;;;;;18.90;99.90;;;;;;5113489;28;19923;-63
2023/09/13 14:00:44;;;;;;;;;;;18.90;99.90;;;;;;5113511;28;19927;-61
2023/09/13 14:03:10;;;;;;;;;;;18.80;99.90;;;;;;5113622;28;20034;-62
2023/09/13 14:05:36;;;;;;;;;;;18.70;99.90;;;;;;5112250;28;19919;-62
2023/09/13 14:08:02;;;;;;;;;;;18.80;99.90;;;;;;5113452;28;19923;-62
2023/09/13 14:10:28;;;;;;;;;;;18.80;99.90;;;;;;5113510;28;19923;-62
2023/09/13 14:12:56;;;;;;;;;;;18.90;99.90;;;;;;5102989;28;20286;-63